Time;durP1;ratioP1;P1;durP2;ratioP2;P2;SDS_P1;SDS_P2;PMS_P1;PMS_P2;Temp;Humidity;BMP_temperature;BMP_pressure;BME280_temperature;BME280_humidity;BME280_pressure;Samples;Min_cycle;Max_cycle;Signal;HPM_P1;HPM_P2
2023/06/25 00:01:28;;;;;;;14.85;13.43;;;;;;;-141.84;79.31;20752.91;4916979;29;20325;-63
2023/06/25 00:03:56;;;;;;;15.27;13.77;;;;;;;-141.84;77.62;20809.81;4925722;29;20644;-63
2023/06/25 00:06:25;;;;;;;15.07;13.52;;;;;;;-141.84;78.18;20783.41;4927271;28;20216;-62
2023/06/25 00:08:54;;;;;;;15.82;14.15;;;;;;;-141.84;78.84;20742.75;4910127;29;20288;-62
2023/06/25 00:11:22;;;;;;;17.67;15.27;;;;;;;-141.84;78.99;20750.88;4920747;28;20671;-62
2023/06/25 00:13:51;;;;;;;15.98;14.48;;;;;;;-141.84;79.10;20712.25;4926993;29;20686;-62
2023/06/25 00:16:20;;;;;;;16.73;14.85;;;;;;;-141.84;79.51;20700.03;4926316;29;20233;-65
2023/06/25 00:18:50;;;;;;;17.25;15.65;;;;;;;-141.84;80.13;20716.31;4919537;29;20740;-63
2023/06/25 00:21:18;;;;;;;17.15;15.45;;;;;;;-141.84;80.78;20708.19;4926263;28;20241;-62
2023/06/25 00:23:47;;;;;;;18.65;16.75;;;;;;;-141.84;81.17;20679.72;4917838;28;20294;-62
2023/06/25 00:26:15;;;;;;;19.30;17.38;;;;;;;-141.84;80.58;20706.16;4908028;29;20240;-63
2023/06/25 00:28:44;;;;;;;18.83;16.85;;;;;;;-141.84;80.71;20716.31;4900061;29;20313;-63
2023/06/25 00:31:13;;;;;;;18.50;16.60;;;;;;;-141.84;81.26;20671.59;4907113;29;20303;-62
2023/06/25 00:33:43;;;;;;;19.45;17.45;;;;;;;-141.84;81.70;20661.44;4922914;29;20237;-62
2023/06/25 00:36:15;;;;;;;19.35;17.42;;;;;;;-141.84;81.98;20691.91;4927132;29;20252;-63
2023/06/25 00:38:44;;;;;;;17.92;16.23;;;;;;;-141.84;82.51;20661.44;4919055;29;20253;-63
2023/06/25 00:41:13;;;;;;;20.30;18.30;;;;;;;-141.84;82.97;20630.94;4926460;29;20735;-62
2023/06/25 00:43:42;;;;;;;21.45;19.40;;;;;;;-141.84;82.30;20645.16;4926604;29;20816;-62
2023/06/25 00:46:15;;;;;;;21.10;18.90;;;;;;;-141.84;81.81;20710.22;4918821;28;20233;-62
2023/06/25 00:48:47;;;;;;;20.92;18.77;;;;;;;-141.84;81.19;20700.03;4916212;28;20245;-63
2023/06/25 00:51:21;;;;;;;21.10;19.00;;;;;;;-141.84;82.24;20667.53;4927104;28;20213;-63
2023/06/25 00:53:50;;;;;;;22.23;20.02;;;;;;;-141.84;83.00;20641.09;4925104;28;20217;-63
2023/06/25 00:56:29;;;;;;;21.40;19.33;;;;;;;-141.84;82.79;20657.34;4907413;29;20339;-62
2023/06/25 00:59:00;;;;;;;21.73;19.65;;;;;;;-141.84;82.74;20639.06;4915395;29;20239;-63
2023/06/25 01:01:36;;;;;;;21.75;19.52;;;;;;;-141.84;83.50;20606.53;4925965;28;20240;-62
2023/06/25 01:04:12;;;;;;;21.15;18.95;;;;;;;-141.84;84.10;20592.31;4925894;29;20288;-62
2023/06/25 01:06:47;;;;;;;21.10;19.20;;;;;;;-141.84;84.57;20590.28;4918700;29;20639;-63
2023/06/25 01:09:17;;;;;;;19.95;18.13;;;;;;;-141.84;85.06;20598.41;4926232;29;20219;-63
2023/06/25 01:11:53;;;;;;;20.70;18.60;;;;;;;-141.84;85.17;20508.97;4926617;29;20213;-62
2023/06/25 01:14:28;;;;;;;19.38;17.45;;;;;;;-141.84;85.06;20565.88;4925554;29;20677;-62
2023/06/25 01:16:57;;;;;;;18.52;16.83;;;;;;;-141.84;85.01;20574.00;4921493;28;20300;-61
2023/06/25 01:19:29;;;;;;;18.58;16.75;;;;;;;-141.84;85.38;20531.31;4925730;29;20233;-63
2023/06/25 01:22:01;;;;;;;18.15;16.25;;;;;;;-141.84;85.65;20555.72;4924380;28;20241;-63
2023/06/25 01:24:34;;;;;;;17.27;15.43;;;;;;;-141.84;86.14;20511.00;4902377;29;20253;-62
2023/06/25 01:27:04;;;;;;;18.95;16.95;;;;;;;-141.84;86.49;20504.91;4907153;29;20238;-63
2023/06/25 01:29:33;;;;;;;16.83;15.05;;;;;;;-141.84;86.76;20531.31;4906559;28;20238;-62
2023/06/25 01:32:02;;;;;;;16.63;15.00;;;;;;;-141.84;86.90;20523.19;4909268;29;20268;-62
2023/06/25 01:34:30;;;;;;;16.67;14.98;;;;;;;-141.84;87.23;20525.22;4918259;28;20293;-62
2023/06/25 01:36:59;;;;;;;16.65;14.82;;;;;;;-141.84;87.08;20531.31;4925402;29;20292;-62
2023/06/25 01:39:27;;;;;;;16.13;14.30;;;;;;;-141.84;87.18;20500.84;4909664;29;20245;-63
2023/06/25 01:41:57;;;;;;;17.42;14.60;;;;;;;-141.84;86.96;20500.84;4907311;29;20249;-63
2023/06/25 01:44:28;;;;;;;16.40;14.57;;;;;;;-141.84;86.15;20565.88;4894403;29;20325;-63
2023/06/25 01:46:58;;;;;;;14.93;13.43;;;;;;;-141.84;86.02;20529.28;4898628;29;20241;-62
2023/06/25 01:49:27;;;;;;;14.18;12.88;;;;;;;-141.84;86.26;20502.88;4916152;29;20245;-63
2023/06/25 01:52:00;;;;;;;14.27;12.98;;;;;;;-141.84;86.65;20515.06;4924750;29;20332;-62
2023/06/25 01:54:29;;;;;;;14.50;12.88;;;;;;;-141.84;87.04;20506.94;4919279;29;20293;-63
2023/06/25 01:56:59;;;;;;;15.77;13.55;;;;;;;-141.84;86.68;20508.97;4925175;29;20671;-62
2023/06/25 01:59:28;;;;;;;14.50;13.02;;;;;;;-141.84;87.12;20506.94;4924447;29;20267;-62
2023/06/25 02:01:56;;;;;;;15.10;13.07;;;;;;;-141.84;87.24;20480.50;4925024;29;20804;-63
2023/06/25 02:04:25;;;;;;;14.85;13.50;;;;;;;-141.84;87.57;20492.72;4925433;29;20720;-63
2023/06/25 02:06:53;;;;;;;14.50;12.98;;;;;;;-141.84;87.94;20450.03;4910325;29;20261;-63
2023/06/25 02:09:22;;;;;;;15.80;14.30;;;;;;;-141.84;88.23;20460.19;4905053;29;20221;-62
2023/06/25 02:11:51;;;;;;;15.85;14.23;;;;;;;-141.84;88.47;20445.94;4925654;29;20212;-63
2023/06/25 02:14:22;;;;;;;14.85;13.35;;;;;;;-141.84;88.78;20425.63;4924649;29;20269;-63
2023/06/25 02:16:50;;;;;;;15.30;13.70;;;;;;;-141.84;89.00;20441.88;4910053;29;21388;-62
2023/06/25 02:19:19;;;;;;;17.13;14.98;;;;;;;-141.84;89.22;20397.16;4906045;29;20269;-62
2023/06/25 02:21:47;;;;;;;17.20;15.48;;;;;;;-141.84;89.19;20421.56;4906632;29;20301;-62
2023/06/25 02:24:16;;;;;;;17.02;15.30;;;;;;;-141.84;88.66;20435.78;4918686;29;20311;-64
2023/06/25 02:26:44;;;;;;;16.33;14.63;;;;;;;-141.84;88.36;20443.91;4918227;29;20295;-62
2023/06/25 02:29:13;;;;;;;16.00;14.50;;;;;;;-141.84;88.75;20431.72;4924429;29;20678;-62
2023/06/25 02:31:42;;;;;;;16.25;14.27;;;;;;;-141.84;88.83;20411.41;4924499;29;20233;-63
2023/06/25 02:34:11;;;;;;;15.07;13.68;;;;;;;-141.84;88.47;20454.09;4924608;28;20234;-63
2023/06/25 02:36:40;;;;;;;17.15;14.23;;;;;;;-141.84;88.62;20447.97;4897893;29;20250;-62
2023/06/25 02:39:08;;;;;;;16.92;14.43;;;;;;;-141.84;88.95;20452.06;4888102;29;20317;-63
2023/06/25 02:41:37;;;;;;;15.05;13.65;;;;;;;-141.84;89.36;20421.56;4907544;29;20238;-62
2023/06/25 02:44:05;;;;;;;16.27;14.73;;;;;;;-141.84;89.96;20362.63;4925087;28;20340;-62
2023/06/25 02:46:35;;;;;;;16.92;14.45;;;;;;;-141.84;90.03;20393.09;4918063;28;20403;-62
2023/06/25 02:49:05;;;;;;;15.45;13.90;;;;;;;-141.84;89.23;20423.59;4923653;28;20291;-63
2023/06/25 02:51:34;;;;;;;16.02;14.43;;;;;;;-141.84;89.37;20409.38;4914937;29;26086;-64
2023/06/25 02:54:02;;;;;;;15.40;13.90;;;;;;;-141.84;89.58;20397.16;4925107;29;20212;-63
2023/06/25 02:56:31;;;;;;;16.33;14.73;;;;;;;-141.84;89.98;20393.09;4916885;28;20728;-62
2023/06/25 02:58:59;;;;;;;16.33;14.60;;;;;;;-141.84;90.16;20382.94;4924971;29;20328;-62
2023/06/25 03:01:29;;;;;;;16.40;14.70;;;;;;;-141.84;89.77;20411.41;4924867;29;20284;-63
2023/06/25 03:03:58;;;;;;;16.15;14.63;;;;;;;-141.84;90.12;20405.31;4924773;29;20313;-63
2023/06/25 03:06:28;;;;;;;15.98;14.38;;;;;;;-141.84;90.44;20395.13;4924447;29;20245;-62
2023/06/25 03:08:56;;;;;;;20.70;18.60;;;;;;;-141.84;90.58;20368.72;4922085;29;20300;-63
2023/06/25 03:11:25;;;;;;;17.77;15.98;;;;;;;-141.84;90.25;20370.75;4928309;29;20324;-62
2023/06/25 03:13:53;;;;;;;15.38;13.85;;;;;;;-141.84;90.10;20391.06;4927987;29;20356;-62
2023/06/25 03:16:22;;;;;;;16.08;14.30;;;;;;;-141.84;89.39;20415.47;4926447;29;20245;-62
2023/06/25 03:18:50;;;;;;;15.85;13.38;;;;;;;-141.84;88.59;20405.31;4920456;28;22542;-62
2023/06/25 03:21:19;;;;;;;15.25;13.65;;;;;;;-141.84;88.34;20405.31;4928046;29;20209;-64
2023/06/25 03:23:48;;;;;;;14.15;12.23;;;;;;;-141.84;87.99;20419.53;4928635;28;20205;-63
2023/06/25 03:26:17;;;;;;;12.88;11.57;;;;;;;-141.84;87.44;20462.22;4927989;28;20623;-62
2023/06/25 03:28:45;;;;;;;14.15;12.60;;;;;;;-141.84;87.38;20423.59;4920661;29;20336;-63
2023/06/25 03:31:14;;;;;;;14.65;12.23;;;;;;;-141.84;86.18;20460.19;4927985;29;20296;-63
2023/06/25 03:33:43;;;;;;;14.05;11.95;;;;;;;-141.84;86.31;20443.91;4912528;29;20230;-62
2023/06/25 03:36:11;;;;;;;15.70;11.95;;;;;;;-141.84;86.22;20472.38;4915310;29;20220;-63
2023/06/25 03:38:40;;;;;;;13.60;12.23;;;;;;;-141.84;85.47;20474.41;4918789;28;20268;-63
2023/06/25 03:41:10;;;;;;;13.90;11.93;;;;;;;-141.84;84.61;20494.75;4927688;28;21012;-62
2023/06/25 03:43:38;;;;;;;12.43;11.15;;;;;;;-141.84;84.76;20502.88;4927772;28;20235;-62
2023/06/25 03:46:07;;;;;;;13.45;11.32;;;;;;;-141.84;84.90;20484.56;4920831;28;20234;-63
2023/06/25 03:48:36;;;;;;;12.48;10.85;;;;;;;-141.84;85.40;20468.31;4916265;29;20264;-63
2023/06/25 03:51:04;;;;;;;13.35;11.32;;;;;;;-141.84;85.24;20484.56;4928347;29;20214;-62
2023/06/25 03:53:33;;;;;;;13.13;10.75;;;;;;;-141.84;85.08;20494.75;4927706;29;20233;-62
2023/06/25 03:56:01;;;;;;;12.23;10.82;;;;;;;-141.84;84.81;20533.34;4926871;28;20237;-63
2023/06/25 03:58:31;;;;;;;11.68;10.60;;;;;;;-141.84;84.60;20494.75;4922066;28;20418;-63
2023/06/25 04:01:00;;;;;;;13.70;11.02;;;;;;;-141.84;84.76;20460.19;4925758;29;20315;-64
2023/06/25 04:03:28;;;;;;;12.32;10.15;;;;;;;-141.84;84.62;20519.13;4927103;29;20308;-63
2023/06/25 04:05:57;;;;;;;11.98;10.77;;;;;;;-141.84;84.22;20500.84;4926433;29;20616;-63
2023/06/25 04:08:25;;;;;;;12.05;10.90;;;;;;;-141.84;83.78;20523.19;4926637;29;20233;-63
2023/06/25 04:10:54;;;;;;;12.35;11.15;;;;;;;-141.84;83.50;20543.53;4920233;29;20249;-63
2023/06/25 04:13:22;;;;;;;12.27;11.05;;;;;;;-141.84;83.29;20551.66;4926956;29;20549;-63
2023/06/25 04:15:52;;;;;;;12.52;10.77;;;;;;;-141.84;83.31;20500.84;4926887;28;20253;-63
2023/06/25 04:18:21;;;;;;;11.45;10.23;;;;;;;-141.84;82.99;20574.00;4926691;28;20308;-63
2023/06/25 04:20:49;;;;;;;11.73;10.52;;;;;;;-141.84;82.71;20574.00;4919712;28;20245;-62
2023/06/25 04:23:19;;;;;;;12.02;10.40;;;;;;;-141.84;82.25;20576.03;4920948;29;20316;-62
2023/06/25 04:25:47;;;;;;;11.48;10.25;;;;;;;-141.84;82.05;20608.56;4907877;29;20276;-62
2023/06/25 04:28:16;;;;;;;11.27;9.40;;;;;;;-141.84;81.29;20590.28;4917982;29;20721;-63
2023/06/25 04:30:45;;;;;;;11.80;10.20;;;;;;;-141.84;81.13;20655.31;4918148;29;20221;-63
2023/06/25 04:33:15;;;;;;;10.63;9.52;;;;;;;-141.84;80.50;20635.00;4927771;29;20248;-63
2023/06/25 04:35:43;;;;;;;10.45;9.27;;;;;;;-141.84;80.39;20673.63;4919883;28;20226;-63
2023/06/25 04:38:12;;;;;;;11.77;10.00;;;;;;;-141.84;79.03;20712.25;4907825;29;20297;-62
2023/06/25 04:40:41;;;;;;;10.52;9.52;;;;;;;-141.84;78.66;20708.19;4902136;29;20269;-62
2023/06/25 04:43:09;;;;;;;13.23;9.85;;;;;;;-141.84;75.91;20781.38;4908965;28;20240;-63
2023/06/25 04:45:38;;;;;;;12.07;10.00;;;;;;;-141.84;75.02;20799.66;4911911;29;20309;-62
2023/06/25 04:48:07;;;;;;;13.15;9.20;;;;;;;-141.84;74.52;20830.16;4928095;29;20205;-62
2023/06/25 04:50:37;;;;;;;10.25;8.98;;;;;;;-141.84;75.08;20903.34;4921352;29;20256;-63
2023/06/25 04:53:05;;;;;;;11.07;8.68;;;;;;;-141.84;71.91;21159.50;4926828;28;20279;-64
2023/06/25 04:55:34;;;;;;;8.50;7.57;;;;;;;-141.84;64.92;21643.38;4912214;29;20655;-64
2023/06/25 04:58:03;;;;;;;7.82;7.10;;;;;;;-141.84;56.75;22267.66;4921904;29;20225;-62
2023/06/25 05:00:31;;;;;;;8.15;7.40;;;;;;;-141.84;52.40;22778.16;4921273;29;20642;-62
2023/06/25 05:03:00;;;;;;;9.25;7.80;;;;;;;-141.84;47.69;23268.34;4928185;29;20292;-64
2023/06/25 05:05:28;;;;;;;9.43;6.78;;;;;;;-141.84;46.51;23549.06;4926307;29;20324;-62
2023/06/25 05:07:58;;;;;;;8.75;7.45;;;;;;;-141.84;43.33;23850.16;4927599;29;20328;-63
2023/06/25 05:10:27;;;;;;;6.95;6.35;;;;;;;-141.84;43.38;23825.75;4927038;29;20247;-64
2023/06/25 05:12:55;;;;;;;9.10;6.80;;;;;;;-141.84;42.47;24053.63;4924212;29;20281;-62
2023/06/25 05:15:24;;;;;;;7.20;6.50;;;;;;;-141.84;41.23;24261.16;4926808;29;20320;-63
2023/06/25 05:17:53;;;;;;;7.93;7.15;;;;;;;-141.84;40.62;24487.00;4927069;28;20216;-63
2023/06/25 05:20:21;;;;;;;10.80;7.68;;;;;;;-141.84;40.16;24450.38;4926987;28;20237;-63
2023/06/25 05:22:50;;;;;;;8.07;7.10;;;;;;;-141.84;39.81;24552.13;4918717;28;21156;-62
2023/06/25 05:25:19;;;;;;;7.43;6.70;;;;;;;-141.84;39.42;24600.94;4926726;29;20241;-63
2023/06/25 05:27:48;;;;;;;9.90;7.80;;;;;;;-141.84;39.68;24645.72;4927620;28;20228;-63
2023/06/25 05:30:16;;;;;;;10.27;7.10;;;;;;;-141.84;39.46;24576.53;4926836;28;20214;-63
2023/06/25 05:32:45;;;;;;;10.07;7.55;;;;;;;-141.84;41.08;24281.50;4919833;28;20221;-63
2023/06/25 05:35:14;;;;;;;7.75;6.97;;;;;;;-141.84;40.16;24366.94;4926999;29;20221;-66
2023/06/25 05:37:42;;;;;;;10.25;7.35;;;;;;;-141.84;41.22;24137.03;4926692;29;20407;-66
2023/06/25 05:40:11;;;;;;;8.55;7.57;;;;;;;-141.84;41.85;23990.53;4926776;28;20720;-67
2023/06/25 05:42:41;;;;;;;8.95;7.60;;;;;;;-141.84;42.75;23693.50;4919581;28;20727;-66
2023/06/25 05:45:11;;;;;;;8.55;7.65;;;;;;;-141.84;44.14;23410.75;4909990;29;20308;-66
2023/06/25 05:47:39;;;;;;;10.05;7.30;;;;;;;-141.84;47.05;22949.00;4926631;29;20239;-63
2023/06/25 05:50:08;;;;;;;8.40;7.53;;;;;;;-141.84;49.13;22666.28;4927237;29;20229;-63
2023/06/25 05:52:37;;;;;;;8.05;7.32;;;;;;;-141.84;51.36;22489.34;4919598;28;20321;-63
2023/06/25 05:55:06;;;;;;;8.88;8.02;;;;;;;-141.84;52.03;22397.81;4915840;29;20329;-63
2023/06/25 05:57:35;;;;;;;8.55;7.60;;;;;;;-141.84;54.80;22298.16;4916569;29;20265;-64
2023/06/25 06:00:08;;;;;;;9.18;8.25;;;;;;;-141.84;55.07;22200.56;4927038;29;20260;-64
2023/06/25 06:02:37;;;;;;;8.93;8.07;;;;;;;-141.84;55.36;22147.69;4920047;29;20320;-63
2023/06/25 06:05:06;;;;;;;9.05;8.07;;;;;;;-141.84;55.57;22137.50;4927158;29;20268;-63
2023/06/25 06:07:34;;;;;;;7.85;7.13;;;;;;;-141.84;55.43;22125.31;4926751;29;20332;-64
2023/06/25 06:10:03;;;;;;;8.55;7.65;;;;;;;-141.84;55.19;22153.78;4926757;29;20761;-64
2023/06/25 06:12:32;;;;;;;9.02;7.55;;;;;;;-141.84;55.26;22086.69;4919659;29;20372;-64
2023/06/25 06:15:00;;;;;;;8.30;7.50;;;;;;;-141.84;55.33;22113.13;4927344;29;20266;-63
2023/06/25 06:17:30;;;;;;;8.50;7.60;;;;;;;-141.84;55.24;22088.72;4926137;29;20233;-63
2023/06/25 06:19:58;;;;;;;8.23;7.47;;;;;;;-141.84;56.33;22102.94;4926620;29;20293;-63
2023/06/25 06:22:27;;;;;;;9.73;7.38;;;;;;;-141.84;55.53;22127.34;4926614;29;20252;-62
2023/06/25 06:24:56;;;;;;;10.93;7.72;;;;;;;-141.84;56.47;22076.50;4917369;28;20599;-63
2023/06/25 06:27:24;;;;;;;7.88;7.07;;;;;;;-141.84;55.31;22102.94;4915349;28;20760;-63
2023/06/25 06:29:53;;;;;;;7.53;6.82;;;;;;;-141.84;54.34;22163.94;4927196;28;20296;-62
2023/06/25 06:32:21;;;;;;;8.23;7.47;;;;;;;-141.84;54.64;22212.75;4925475;28;20728;-63
2023/06/25 06:34:51;;;;;;;8.05;6.60;;;;;;;-141.84;53.63;22247.34;4911953;29;24907;-63
2023/06/25 06:37:20;;;;;;;7.03;6.32;;;;;;;-141.84;53.82;22241.22;4906987;29;20233;-63
2023/06/25 06:39:48;;;;;;;7.43;6.40;;;;;;;-141.84;53.15;22227.00;4906704;29;20261;-64
2023/06/25 06:42:17;;;;;;;8.65;7.13;;;;;;;-141.84;53.53;22182.25;4907279;29;20297;-63
2023/06/25 06:44:45;;;;;;;7.03;6.07;;;;;;;-141.84;52.47;22192.44;4916502;29;20209;-62
2023/06/25 06:47:14;;;;;;;7.15;6.45;;;;;;;-141.84;52.72;22188.34;4913981;29;20324;-64
2023/06/25 06:49:42;;;;;;;6.53;5.88;;;;;;;-141.84;52.62;22218.84;4910741;29;20229;-62
2023/06/25 06:52:13;;;;;;;6.70;6.10;;;;;;;-141.84;53.00;22269.69;4910173;29;20233;-63
2023/06/25 06:54:41;;;;;;;7.22;6.43;;;;;;;-141.84;52.34;22314.44;4910724;28;20248;-64
2023/06/25 06:57:10;;;;;;;7.82;5.63;;;;;;;-141.84;53.04;22275.81;4929939;29;20218;-64
2023/06/25 06:59:38;;;;;;;7.28;5.68;;;;;;;-141.84;51.93;22367.31;4929309;29;20649;-63
2023/06/25 07:02:07;;;;;;;7.05;6.32;;;;;;;-141.84;51.95;22389.69;4927955;29;20324;-62
2023/06/25 07:04:36;;;;;;;8.20;6.68;;;;;;;-141.84;51.02;22432.41;4920626;29;20456;-67
2023/06/25 07:07:05;;;;;;;6.68;6.07;;;;;;;-141.84;51.09;22428.31;4919293;28;20669;-66
2023/06/25 07:09:36;;;;;;;6.30;5.75;;;;;;;-141.84;51.23;22424.25;4919514;29;20245;-67
2023/06/25 07:12:05;;;;;;;6.47;5.82;;;;;;;-141.84;50.33;22464.94;4919481;29;20730;-67
2023/06/25 07:14:33;;;;;;;6.18;5.68;;;;;;;-141.84;50.49;22469.00;4906374;29;20287;-66
2023/06/25 07:17:02;;;;;;;6.97;6.05;;;;;;;-141.84;50.25;22456.81;4921453;29;20260;-66
2023/06/25 07:19:30;;;;;;;6.32;5.72;;;;;;;-141.84;50.83;22442.56;4918057;29;20280;-67
2023/06/25 07:21:59;;;;;;;7.93;6.50;;;;;;;-141.84;51.55;22460.88;4921289;29;20285;-68
2023/06/25 07:24:27;;;;;;;5.72;5.07;;;;;;;-141.84;51.29;22458.84;4927592;28;20264;-67
2023/06/25 07:26:57;;;;;;;6.88;6.00;;;;;;;-141.84;50.13;22507.66;4925070;28;20206;-68
2023/06/25 07:29:27;;;;;;;8.40;5.72;;;;;;;-141.84;49.43;22511.72;4927903;28;20801;-66
2023/06/25 07:31:56;;;;;;;6.10;5.50;;;;;;;-141.84;49.62;22493.41;4927330;28;20236;-66
2023/06/25 07:34:25;;;;;;;6.53;5.50;;;;;;;-141.84;49.19;22538.16;4927533;29;20605;-66
2023/06/25 07:36:53;;;;;;;5.63;5.10;;;;;;;-141.84;49.05;22538.16;4921587;29;20757;-67
2023/06/25 07:39:29;;;;;;;7.60;5.25;;;;;;;-141.84;47.88;22534.09;4927312;29;20730;-67
2023/06/25 07:41:59;;;;;;;6.30;5.00;;;;;;;-141.84;47.65;22552.38;4927711;29;20615;-66
2023/06/25 07:44:27;;;;;;;5.55;5.05;;;;;;;-141.84;47.60;22532.06;4914588;28;20277;-67
2023/06/25 07:46:59;;;;;;;5.90;5.40;;;;;;;-141.84;47.93;22534.09;4923102;29;20241;-66
2023/06/25 07:49:27;;;;;;;6.13;5.53;;;;;;;-141.84;48.64;22513.75;4928599;28;20284;-68
2023/06/25 07:51:56;;;;;;;5.75;5.25;;;;;;;-141.84;48.50;22521.88;4928308;29;20235;-66
2023/06/25 07:54:24;;;;;;;7.00;5.35;;;;;;;-141.84;47.55;22558.50;4922357;29;20642;-67
2023/06/25 07:56:53;;;;;;;5.90;5.40;;;;;;;-141.84;47.17;22513.75;4907006;29;20236;-66
2023/06/25 07:59:23;;;;;;;6.03;5.50;;;;;;;-141.84;46.93;22515.78;4928781;29;20877;-67
2023/06/25 08:01:53;;;;;;;5.93;5.38;;;;;;;-141.84;47.07;22509.69;4927198;29;20268;-66
2023/06/25 08:04:21;;;;;;;6.88;5.75;;;;;;;-141.84;47.54;22485.28;4927376;29;20253;-66
2023/06/25 08:06:50;;;;;;;6.13;5.53;;;;;;;-141.84;47.96;22420.19;4920267;29;20675;-67
2023/06/25 08:09:19;;;;;;;5.10;4.70;;;;;;;-141.84;47.41;22487.31;4920025;29;20218;-65
2023/06/25 08:11:47;;;;;;;5.82;5.22;;;;;;;-141.84;47.26;22521.88;4910141;29;20380;-66
2023/06/25 08:14:16;;;;;;;5.85;5.35;;;;;;;-141.84;46.86;22485.28;4927317;29;20709;-66
2023/06/25 08:16:46;;;;;;;6.22;5.63;;;;;;;-141.84;47.30;22517.81;4919053;28;20351;-66
2023/06/25 08:19:14;;;;;;;5.25;4.78;;;;;;;-141.84;47.70;22452.72;4925947;29;20218;-66
2023/06/25 08:21:43;;;;;;;6.05;5.45;;;;;;;-141.84;47.58;22481.22;4926457;28;20240;-67
2023/06/25 08:24:11;;;;;;;7.90;5.80;;;;;;;-141.84;47.98;22485.28;4927228;29;20598;-66
2023/06/25 08:26:40;;;;;;;6.82;5.20;;;;;;;-141.84;48.29;22505.59;4917472;28;20608;-65
2023/06/25 08:29:08;;;;;;;5.70;5.20;;;;;;;-141.84;46.13;22540.19;4908097;29;20676;-65
2023/06/25 08:31:37;;;;;;;5.47;4.97;;;;;;;-141.84;46.41;22503.56;4907670;29;20781;-67
2023/06/25 08:34:07;;;;;;;6.47;5.70;;;;;;;-141.84;46.36;22473.06;4925470;29;20228;-66
2023/06/25 08:36:36;;;;;;;5.07;4.57;;;;;;;-141.84;46.92;22491.38;4919156;29;20277;-66
2023/06/25 08:39:04;;;;;;;5.45;4.95;;;;;;;-141.84;46.64;22487.31;4927479;29;20301;-65
2023/06/25 08:41:34;;;;;;;7.68;6.00;;;;;;;-141.84;45.74;22509.69;4927129;29;20267;-66
2023/06/25 08:44:03;;;;;;;7.20;5.75;;;;;;;-141.84;46.32;22542.22;4917463;29;20258;-66
2023/06/25 08:46:33;;;;;;;5.53;5.03;;;;;;;-141.84;46.27;22534.09;4909771;29;20229;-66
2023/06/25 08:49:05;;;;;;;5.75;5.25;;;;;;;-141.84;45.93;22527.97;4926433;29;20241;-66
2023/06/25 08:51:37;;;;;;;6.93;5.03;;;;;;;-141.84;45.91;22572.72;4926587;28;20248;-66
2023/06/25 08:54:06;;;;;;;4.93;4.53;;;;;;;-141.84;45.74;22593.06;4921386;29;20248;-66
2023/06/25 08:56:35;;;;;;;5.45;4.95;;;;;;;-141.84;46.16;22609.34;4868146;28;20309;-66
2023/06/25 08:59:04;;;;;;;5.65;5.22;;;;;;;-141.84;46.06;22605.25;4926154;29;20552;-66
2023/06/25 09:01:32;;;;;;;5.00;4.50;;;;;;;-141.84;45.84;22678.47;4923085;29;20297;-67
2023/06/25 09:04:01;;;;;;;5.72;5.22;;;;;;;-141.84;45.90;22733.41;4908476;29;20646;-66
2023/06/25 09:06:29;;;;;;;5.30;4.90;;;;;;;-141.84;45.07;22757.81;4904277;29;20206;-69
2023/06/25 09:09:01;;;;;;;5.85;5.35;;;;;;;-141.84;45.46;22751.69;4914319;29;20654;-66
2023/06/25 09:11:31;;;;;;;5.78;5.18;;;;;;;-141.84;45.43;22810.69;4926194;29;20260;-66
2023/06/25 09:14:02;;;;;;;6.10;5.50;;;;;;;-141.84;44.40;22853.41;4925894;29;20262;-66
2023/06/25 09:16:30;;;;;;;5.70;5.20;;;;;;;-141.84;44.86;22829.00;4919352;28;20243;-66
2023/06/25 09:19:02;;;;;;;5.60;5.07;;;;;;;-141.84;45.16;22857.47;4925353;29;20670;-66
2023/06/25 09:21:39;;;;;;;5.32;4.82;;;;;;;-141.84;44.82;22918.50;4926140;29;20217;-66
2023/06/25 09:24:19;;;;;;;6.00;5.20;;;;;;;-141.84;44.79;22944.94;4914570;29;20218;-66
2023/06/25 09:26:48;;;;;;;6.03;5.43;;;;;;;-141.84;43.59;23024.25;4907581;28;20222;-65
2023/06/25 09:29:18;;;;;;;5.53;5.13;;;;;;;-141.84;43.58;22926.63;4913529;28;20281;-67
2023/06/25 09:31:48;;;;;;;6.20;5.60;;;;;;;-141.84;44.47;22831.03;4908243;28;20725;-66
2023/06/25 09:34:18;;;;;;;6.15;5.55;;;;;;;-141.84;44.76;22916.44;4927247;28;20317;-66
2023/06/25 09:36:47;;;;;;;6.05;5.47;;;;;;;-141.84;44.34;22920.53;4920052;29;20705;-66
2023/06/25 09:39:17;;;;;;;5.97;5.47;;;;;;;-141.84;43.89;22965.28;4926104;29;20233;-67
2023/06/25 09:41:47;;;;;;;5.68;5.18;;;;;;;-141.84;43.81;23032.38;4925832;28;20231;-66
2023/06/25 09:44:17;;;;;;;5.93;5.43;;;;;;;-141.84;43.45;23079.19;4915177;29;20233;-67
2023/06/25 09:46:48;;;;;;;5.82;5.28;;;;;;;-141.84;43.44;23111.72;4910796;29;20323;-65
2023/06/25 09:49:19;;;;;;;6.10;5.50;;;;;;;-141.84;42.95;23211.38;4923280;29;20273;-67
2023/06/25 09:51:54;;;;;;;5.50;5.00;;;;;;;-141.84;42.67;23205.28;4906455;29;20625;-67
2023/06/25 09:54:25;;;;;;;5.53;5.03;;;;;;;-141.84;42.80;23221.56;4897772;29;20238;-65
2023/06/25 09:56:55;;;;;;;5.97;5.47;;;;;;;-141.84;42.18;23258.19;4898736;29;20700;-67
2023/06/25 09:59:24;;;;;;;5.38;4.97;;;;;;;-141.84;43.13;23213.44;4898073;29;20270;-66
2023/06/25 10:01:53;;;;;;;5.82;4.85;;;;;;;-141.84;43.50;23264.28;4888614;29;20235;-66
2023/06/25 10:04:22;;;;;;;5.90;4.97;;;;;;;-141.84;42.42;23264.28;4906965;29;20272;-67
2023/06/25 10:06:52;;;;;;;5.72;5.10;;;;;;;-141.84;42.22;23315.13;4904541;29;20239;-66
2023/06/25 10:09:21;;;;;;;6.15;5.55;;;;;;;-141.84;41.95;23284.63;4915440;29;20218;-68
2023/06/25 10:11:56;;;;;;;6.50;5.30;;;;;;;-141.84;42.64;23335.47;4921649;28;20209;-65
2023/06/25 10:14:25;;;;;;;5.35;4.85;;;;;;;-141.84;41.49;23353.78;4893497;29;20317;-67
2023/06/25 10:16:54;;;;;;;5.30;4.80;;;;;;;-141.84;41.34;23449.38;4880449;29;20270;-66
2023/06/25 10:19:24;;;;;;;5.95;5.15;;;;;;;-141.84;40.89;23475.84;4896941;29;20233;-65
2023/06/25 10:22:00;;;;;;;5.35;4.88;;;;;;;-141.84;40.50;23630.44;4905850;29;20277;-67
2023/06/25 10:24:39;;;;;;;5.68;5.18;;;;;;;-141.84;40.21;23685.38;4892002;29;20210;-69
2023/06/25 10:27:19;;;;;;;5.50;4.45;;;;;;;-141.84;40.36;23719.97;4906597;29;20300;-66
2023/06/25 10:29:48;;;;;;;5.57;5.07;;;;;;;-141.84;39.03;23827.78;4887426;29;20265;-63
2023/06/25 10:32:20;;;;;;;5.43;4.93;;;;;;;-141.84;39.64;23689.44;4902828;29;20318;-64
2023/06/25 10:34:54;;;;;;;5.35;4.88;;;;;;;-141.84;40.35;23770.81;4898251;29;20709;-64
2023/06/25 10:37:28;;;;;;;5.00;4.60;;;;;;;-141.84;39.71;23693.50;4906324;29;20825;-63
2023/06/25 10:40:11;;;;;;;5.72;4.60;;;;;;;-141.84;39.31;23650.78;4905977;29;20229;-63
2023/06/25 10:42:41;;;;;;;5.18;4.78;;;;;;;-141.84;40.07;23526.69;4898696;29;20290;-64
2023/06/25 10:45:10;;;;;;;4.80;4.38;;;;;;;-141.84;39.80;23453.47;4906533;29;20597;-64
2023/06/25 10:47:39;;;;;;;6.20;4.88;;;;;;;-141.84;40.72;23376.16;4923745;29;20233;-65
2023/06/25 10:50:08;;;;;;;5.53;5.03;;;;;;;-141.84;40.80;23327.34;4924850;29;20932;-64
2023/06/25 10:52:38;;;;;;;5.18;4.75;;;;;;;-141.84;40.80;23284.63;4917172;29;20221;-63
2023/06/25 10:55:08;;;;;;;5.95;4.93;;;;;;;-141.84;40.72;23294.78;4913736;29;20325;-64
2023/06/25 10:57:37;;;;;;;5.15;4.75;;;;;;;-141.84;41.82;23241.91;4915561;29;20253;-65
2023/06/25 11:00:08;;;;;;;5.30;4.75;;;;;;;-141.84;41.43;23258.19;4925267;29;20256;-64
2023/06/25 11:02:37;;;;;;;5.22;4.72;;;;;;;-141.84;41.94;23219.53;4917459;29;20561;-64
2023/06/25 11:05:06;;;;;;;5.70;5.20;;;;;;;-141.84;42.25;23164.59;4924244;28;20261;-63
2023/06/25 11:07:35;;;;;;;5.40;4.90;;;;;;;-141.84;41.51;23229.69;4907473;28;20400;-64
2023/06/25 11:10:04;;;;;;;5.65;5.00;;;;;;;-141.84;41.77;23302.94;4924748;28;20312;-64
2023/06/25 11:12:33;;;;;;;5.32;4.82;;;;;;;-141.84;41.19;23372.09;4917133;28;20296;-64
2023/06/25 11:15:01;;;;;;;5.30;4.78;;;;;;;-141.84;41.18;23510.41;4925172;28;20321;-63
2023/06/25 11:17:31;;;;;;;4.88;4.40;;;;;;;-141.84;40.67;23685.38;4924501;28;20328;-64
2023/06/25 11:20:00;;;;;;;5.07;4.45;;;;;;;-141.84;39.71;23860.34;4924769;28;20237;-65